sensor_id;sensor_type;location;lat;lon;timestamp;pressure;altitude;pressure_sealevel;temperature;humidity
43934;BME280;59081;42.706;23.306;2023-11-19T00:03:43;95076.59;;;1.90;84.03
43934;BME280;59081;42.706;23.306;2023-11-19T00:08:44;95087.50;;;2.04;83.32
43934;BME280;59081;42.706;23.306;2023-11-19T00:13:45;95150.88;;;2.47;83.42
43934;BME280;59081;42.706;23.306;2023-11-19T00:18:46;95178.44;;;2.45;83.86
43934;BME280;59081;42.706;23.306;2023-11-19T00:23:46;95086.28;;;1.94;82.89
43934;BME280;59081;42.706;23.306;2023-11-19T00:28:46;95034.16;;;1.50;83.94
43934;BME280;59081;42.706;23.306;2023-11-19T00:33:48;95153.97;;;2.45;83.59
43934;BME280;59081;42.706;23.306;2023-11-19T00:38:48;95069.16;;;1.72;84.09
43934;BME280;59081;42.706;23.306;2023-11-19T00:43:49;95083.13;;;1.78;84.45
43934;BME280;59081;42.706;23.306;2023-11-19T00:48:49;95059.91;;;1.95;82.60
43934;BME280;59081;42.706;23.306;2023-11-19T00:53:49;95156.66;;;2.28;84.54
43934;BME280;59081;42.706;23.306;2023-11-19T00:58:50;95167.19;;;2.47;84.67
43934;BME280;59081;42.706;23.306;2023-11-19T01:03:50;94989.84;;;1.17;84.55
43934;BME280;59081;42.706;23.306;2023-11-19T01:08:51;95076.91;;;1.67;85.40
43934;BME280;59081;42.706;23.306;2023-11-19T01:13:53;95064.56;;;1.87;82.62
43934;BME280;59081;42.706;23.306;2023-11-19T01:18:53;95065.22;;;1.52;84.28
43934;BME280;59081;42.706;23.306;2023-11-19T01:23:54;95130.66;;;2.44;83.05
43934;BME280;59081;42.706;23.306;2023-11-19T01:28:55;95077.63;;;1.53;84.08
43934;BME280;59081;42.706;23.306;2023-11-19T01:33:55;95121.59;;;1.91;84.86
43934;BME280;59081;42.706;23.306;2023-11-19T01:38:56;95181.56;;;2.48;82.97
43934;BME280;59081;42.706;23.306;2023-11-19T01:43:56;95153.88;;;2.06;83.55
43934;BME280;59081;42.706;23.306;2023-11-19T01:48:57;95033.28;;;1.28;83.46
43934;BME280;59081;42.706;23.306;2023-11-19T01:53:58;95137.50;;;1.89;82.58
43934;BME280;59081;42.706;23.306;2023-11-19T01:58:59;95145.56;;;1.74;82.44
43934;BME280;59081;42.706;23.306;2023-11-19T02:04:01;95114.56;;;1.72;82.28
43934;BME280;59081;42.706;23.306;2023-11-19T02:09:02;95144.84;;;1.81;81.83
43934;BME280;59081;42.706;23.306;2023-11-19T02:14:07;95158.44;;;1.85;82.73
43934;BME280;59081;42.706;23.306;2023-11-19T02:19:08;95082.72;;;1.76;81.72
43934;BME280;59081;42.706;23.306;2023-11-19T02:24:11;95168.59;;;2.02;81.43
43934;BME280;59081;42.706;23.306;2023-11-19T02:29:14;95209.44;;;2.27;82.70
43934;BME280;59081;42.706;23.306;2023-11-19T02:34:14;95129.28;;;1.74;82.61
43934;BME280;59081;42.706;23.306;2023-11-19T02:39:16;95120.63;;;1.48;83.65
43934;BME280;59081;42.706;23.306;2023-11-19T02:44:21;95205.88;;;2.05;82.81
43934;BME280;59081;42.706;23.306;2023-11-19T02:49:22;95144.22;;;1.40;84.66
43934;BME280;59081;42.706;23.306;2023-11-19T02:54:22;95142.84;;;1.67;84.57
43934;BME280;59081;42.706;23.306;2023-11-19T02:59:27;95148.97;;;1.57;84.29
43934;BME280;59081;42.706;23.306;2023-11-19T03:04:28;95046.19;;;0.80;84.48
43934;BME280;59081;42.706;23.306;2023-11-19T03:09:28;95145.88;;;1.59;83.95
43934;BME280;59081;42.706;23.306;2023-11-19T03:14:29;95187.00;;;1.57;84.32
43934;BME280;59081;42.706;23.306;2023-11-19T03:19:30;95034.41;;;0.54;84.40
43934;BME280;59081;42.706;23.306;2023-11-19T03:24:30;95090.59;;;1.16;82.44
43934;BME280;59081;42.706;23.306;2023-11-19T03:29:31;95120.84;;;1.18;83.80
43934;BME280;59081;42.706;23.306;2023-11-19T03:34:31;95205.91;;;2.16;83.08
43934;BME280;59081;42.706;23.306;2023-11-19T03:39:31;95195.63;;;1.77;83.75
43934;BME280;59081;42.706;23.306;2023-11-19T03:44:33;95184.94;;;1.40;84.99
43934;BME280;59081;42.706;23.306;2023-11-19T03:49:33;95214.31;;;1.86;83.46
43934;BME280;59081;42.706;23.306;2023-11-19T03:54:33;95174.06;;;1.33;84.56
43934;BME280;59081;42.706;23.306;2023-11-19T03:59:34;95190.84;;;1.49;84.07
43934;BME280;59081;42.706;23.306;2023-11-19T04:04:34;95210.44;;;1.83;82.94
43934;BME280;59081;42.706;23.306;2023-11-19T04:09:35;95138.63;;;1.12;83.20
43934;BME280;59081;42.706;23.306;2023-11-19T04:14:37;95060.69;;;0.47;83.72
43934;BME280;59081;42.706;23.306;2023-11-19T04:19:38;95222.28;;;1.57;83.84
43934;BME280;59081;42.706;23.306;2023-11-19T04:24:41;95192.59;;;1.24;83.85
43934;BME280;59081;42.706;23.306;2023-11-19T04:29:44;95095.16;;;1.04;83.21
43934;BME280;59081;42.706;23.306;2023-11-19T04:34:46;95183.44;;;1.46;83.06
43934;BME280;59081;42.706;23.306;2023-11-19T04:39:46;95131.47;;;0.86;83.57
43934;BME280;59081;42.706;23.306;2023-11-19T04:44:47;95236.06;;;1.93;81.64
43934;BME280;59081;42.706;23.306;2023-11-19T04:49:47;95151.34;;;1.00;83.56
43934;BME280;59081;42.706;23.306;2023-11-19T04:54:48;95212.03;;;1.33;83.19
43934;BME280;59081;42.706;23.306;2023-11-19T04:59:48;95255.00;;;1.79;82.27
43934;BME280;59081;42.706;23.306;2023-11-19T05:04:50;95213.94;;;1.29;82.97
43934;BME280;59081;42.706;23.306;2023-11-19T05:09:50;95199.47;;;1.11;83.79
43934;BME280;59081;42.706;23.306;2023-11-19T05:14:51;95320.28;;;1.89;82.43
43934;BME280;59081;42.706;23.306;2023-11-19T05:19:51;95255.47;;;1.33;83.87
43934;BME280;59081;42.706;23.306;2023-11-19T05:24:52;95209.47;;;1.51;81.80
43934;BME280;59081;42.706;23.306;2023-11-19T05:29:52;95179.50;;;0.89;83.34
43934;BME280;59081;42.706;23.306;2023-11-19T05:34:53;95204.03;;;0.99;83.74
43934;BME280;59081;42.706;23.306;2023-11-19T05:39:53;95134.56;;;0.88;81.24
43934;BME280;59081;42.706;23.306;2023-11-19T05:44:54;95237.63;;;1.32;82.50
43934;BME280;59081;42.706;23.306;2023-11-19T05:49:54;95291.94;;;1.87;82.25
43934;BME280;59081;42.706;23.306;2023-11-19T05:54:55;95297.63;;;1.67;82.31
43934;BME280;59081;42.706;23.306;2023-11-19T05:59:55;95218.50;;;1.14;82.11
43934;BME280;59081;42.706;23.306;2023-11-19T06:04:56;95197.59;;;1.18;81.67
43934;BME280;59081;42.706;23.306;2023-11-19T06:09:56;95300.38;;;1.74;82.16
43934;BME280;59081;42.706;23.306;2023-11-19T06:14:57;95232.03;;;1.65;81.27
43934;BME280;59081;42.706;23.306;2023-11-19T06:19:58;95299.72;;;1.88;81.10
43934;BME280;59081;42.706;23.306;2023-11-19T06:24:58;95181.78;;;0.80;82.85
43934;BME280;59081;42.706;23.306;2023-11-19T06:30:01;95175.84;;;1.11;81.28
43934;BME280;59081;42.706;23.306;2023-11-19T06:35:01;95215.56;;;0.89;82.39
43934;BME280;59081;42.706;23.306;2023-11-19T06:40:05;95294.53;;;1.25;83.64
43934;BME280;59081;42.706;23.306;2023-11-19T06:45:06;95326.63;;;2.11;81.70
43934;BME280;59081;42.706;23.306;2023-11-19T06:50:07;95264.66;;;1.18;81.97
43934;BME280;59081;42.706;23.306;2023-11-19T06:55:08;95285.38;;;1.40;81.46
43934;BME280;59081;42.706;23.306;2023-11-19T07:00:09;95191.13;;;0.86;79.92
43934;BME280;59081;42.706;23.306;2023-11-19T07:05:11;95306.34;;;1.43;81.46
43934;BME280;59081;42.706;23.306;2023-11-19T07:10:16;95236.81;;;1.28;79.66
43934;BME280;59081;42.706;23.306;2023-11-19T07:15:16;95368.34;;;1.82;83.55
43934;BME280;59081;42.706;23.306;2023-11-19T07:20:18;95200.19;;;0.60;81.04
43934;BME280;59081;42.706;23.306;2023-11-19T07:25:19;95159.63;;;0.74;80.54
43934;BME280;59081;42.706;23.306;2023-11-19T07:30:19;95180.91;;;0.72;80.59
43934;BME280;59081;42.706;23.306;2023-11-19T07:35:25;95299.47;;;1.56;86.42
43934;BME280;59081;42.706;23.306;2023-11-19T07:40:25;95341.00;;;2.12;78.74
43934;BME280;59081;42.706;23.306;2023-11-19T07:45:27;95343.53;;;1.39;79.73
43934;BME280;59081;42.706;23.306;2023-11-19T07:50:28;95157.31;;;0.32;79.71
43934;BME280;59081;42.706;23.306;2023-11-19T07:55:31;95249.56;;;1.20;77.84
43934;BME280;59081;42.706;23.306;2023-11-19T08:00:32;95295.03;;;1.34;78.25
43934;BME280;59081;42.706;23.306;2023-11-19T08:05:35;95243.41;;;1.27;77.42
43934;BME280;59081;42.706;23.306;2023-11-19T08:10:36;95304.50;;;1.54;77.01
43934;BME280;59081;42.706;23.306;2023-11-19T08:15:37;95223.59;;;0.79;78.61
43934;BME280;59081;42.706;23.306;2023-11-19T08:20:39;95252.53;;;1.52;76.35
43934;BME280;59081;42.706;23.306;2023-11-19T08:25:43;95342.09;;;1.52;78.35
43934;BME280;59081;42.706;23.306;2023-11-19T08:30:44;95311.72;;;1.36;78.82
43934;BME280;59081;42.706;23.306;2023-11-19T08:35:45;95319.44;;;1.82;76.50
43934;BME280;59081;42.706;23.306;2023-11-19T08:46:20;95250.22;;;1.10;77.86
43934;BME280;59081;42.706;23.306;2023-11-19T08:51:21;95267.50;;;0.91;78.10
43934;BME280;59081;42.706;23.306;2023-11-19T08:56:23;95387.09;;;1.53;78.09
43934;BME280;59081;42.706;23.306;2023-11-19T09:01:24;95372.16;;;2.28;75.59
43934;BME280;59081;42.706;23.306;2023-11-19T09:06:25;95242.06;;;1.07;76.50
43934;BME280;59081;42.706;23.306;2023-11-19T09:11:29;95375.00;;;1.88;76.83
43934;BME280;59081;42.706;23.306;2023-11-19T09:16:30;95283.06;;;1.42;75.29
43934;BME280;59081;42.706;23.306;2023-11-19T09:21:31;95229.94;;;0.93;75.43
43934;BME280;59081;42.706;23.306;2023-11-19T09:26:31;95390.78;;;2.26;75.35
43934;BME280;59081;42.706;23.306;2023-11-19T09:31:32;95364.88;;;1.85;75.16
43934;BME280;59081;42.706;23.306;2023-11-19T09:36:32;95429.31;;;2.39;75.12
43934;BME280;59081;42.706;23.306;2023-11-19T09:41:33;95354.69;;;2.29;74.02
43934;BME280;59081;42.706;23.306;2023-11-19T09:46:35;95223.94;;;1.18;75.18
43934;BME280;59081;42.706;23.306;2023-11-19T09:51:36;95380.09;;;2.62;73.79
43934;BME280;59081;42.706;23.306;2023-11-19T09:56:37;95335.06;;;2.64;72.26
43934;BME280;59081;42.706;23.306;2023-11-19T10:01:39;95305.44;;;2.41;72.83
43934;BME280;59081;42.706;23.306;2023-11-19T10:06:41;95263.19;;;2.58;72.08
43934;BME280;59081;42.706;23.306;2023-11-19T10:11:42;95250.22;;;2.27;73.27
43934;BME280;59081;42.706;23.306;2023-11-19T10:16:43;95140.06;;;1.53;73.30
43934;BME280;59081;42.706;23.306;2023-11-19T10:21:46;95320.03;;;2.92;72.38
43934;BME280;59081;42.706;23.306;2023-11-19T10:26:48;95172.34;;;1.72;72.59
43934;BME280;59081;42.706;23.306;2023-11-19T10:31:56;95291.50;;;2.54;72.34
43934;BME280;59081;42.706;23.306;2023-11-19T10:36:57;95232.59;;;1.96;74.04
43934;BME280;59081;42.706;23.306;2023-11-19T10:42:14;95203.63;;;2.28;71.70
43934;BME280;59081;42.706;23.306;2023-11-19T10:47:18;95256.16;;;2.54;71.35
43934;BME280;59081;42.706;23.306;2023-11-19T10:52:19;95353.97;;;3.51;70.38
43934;BME280;59081;42.706;23.306;2023-11-19T10:57:21;95329.47;;;3.94;67.53
43934;BME280;59081;42.706;23.306;2023-11-19T11:02:27;95161.81;;;3.00;67.72
43934;BME280;59081;42.706;23.306;2023-11-19T11:07:31;95255.72;;;5.23;62.61
43934;BME280;59081;42.706;23.306;2023-11-19T11:12:36;95268.50;;;5.89;60.02
43934;BME280;59081;42.706;23.306;2023-11-19T11:17:39;95134.06;;;5.15;60.04
43934;BME280;59081;42.706;23.306;2023-11-19T11:23:11;95311.09;;;6.99;57.24
43934;BME280;59081;42.706;23.306;2023-11-19T11:28:40;95305.22;;;7.01;56.63
43934;BME280;59081;42.706;23.306;2023-11-19T11:34:05;95315.88;;;8.26;55.13
43934;BME280;59081;42.706;23.306;2023-11-19T11:39:11;95255.88;;;8.04;52.69
43934;BME280;59081;42.706;23.306;2023-11-19T11:44:11;95225.56;;;6.88;53.41
43934;BME280;59081;42.706;23.306;2023-11-19T11:49:12;95238.13;;;7.89;51.71
43934;BME280;59081;42.706;23.306;2023-11-19T11:59:20;95209.06;;;8.75;48.94
43934;BME280;59081;42.706;23.306;2023-11-19T12:04:20;95230.81;;;9.21;47.80
43934;BME280;59081;42.706;23.306;2023-11-19T12:09:21;95196.59;;;8.90;46.77
43934;BME280;59081;42.706;23.306;2023-11-19T12:20:06;95236.63;;;9.92;46.30
43934;BME280;59081;42.706;23.306;2023-11-19T12:25:12;95153.00;;;9.57;46.13
43934;BME280;59081;42.706;23.306;2023-11-19T12:30:23;95222.41;;;10.26;46.17
43934;BME280;59081;42.706;23.306;2023-11-19T12:35:24;95148.56;;;9.30;45.82
43934;BME280;59081;42.706;23.306;2023-11-19T12:40:25;95162.63;;;9.16;46.34
43934;BME280;59081;42.706;23.306;2023-11-19T12:45:35;95150.44;;;9.33;46.70
43934;BME280;59081;42.706;23.306;2023-11-19T12:50:55;95231.19;;;9.72;46.06
43934;BME280;59081;42.706;23.306;2023-11-19T12:56:07;95139.34;;;8.32;48.58
43934;BME280;59081;42.706;23.306;2023-11-19T13:01:08;95179.03;;;8.84;49.13
43934;BME280;59081;42.706;23.306;2023-11-19T13:06:13;95072.47;;;8.95;46.24
43934;BME280;59081;42.706;23.306;2023-11-19T13:11:30;95076.31;;;9.30;46.04
43934;BME280;59081;42.706;23.306;2023-11-19T13:16:31;95201.06;;;9.68;45.24
43934;BME280;59081;42.706;23.306;2023-11-19T13:21:32;95049.16;;;9.32;44.34
43934;BME280;59081;42.706;23.306;2023-11-19T13:26:33;95024.56;;;8.96;45.27
43934;BME280;59081;42.706;23.306;2023-11-19T13:31:41;95194.94;;;9.28;47.56
43934;BME280;59081;42.706;23.306;2023-11-19T13:36:42;95052.47;;;7.86;49.10
43934;BME280;59081;42.706;23.306;2023-11-19T13:41:46;95046.84;;;7.93;49.22
43934;BME280;59081;42.706;23.306;2023-11-19T13:46:46;95096.00;;;6.68;54.33
43934;BME280;59081;42.706;23.306;2023-11-19T13:51:47;95177.25;;;7.01;55.38
43934;BME280;59081;42.706;23.306;2023-11-19T13:56:48;95043.06;;;6.24;55.27
43934;BME280;59081;42.706;23.306;2023-11-19T14:07:00;95090.59;;;5.35;59.68
43934;BME280;59081;42.706;23.306;2023-11-19T14:22:34;95254.31;;;6.05;60.60
43934;BME280;59081;42.706;23.306;2023-11-19T14:27:37;95124.91;;;4.29;63.57
43934;BME280;59081;42.706;23.306;2023-11-19T14:32:39;95124.53;;;4.31;64.23
43934;BME280;59081;42.706;23.306;2023-11-19T14:37:40;95233.03;;;4.68;65.95
43934;BME280;59081;42.706;23.306;2023-11-19T14:42:43;95058.59;;;4.43;67.60
43934;BME280;59081;42.706;23.306;2023-11-19T14:47:44;95109.06;;;4.72;66.31
43934;BME280;59081;42.706;23.306;2023-11-19T14:52:53;95061.13;;;3.07;72.01
43934;BME280;59081;42.706;23.306;2023-11-19T14:57:54;95064.59;;;3.26;71.64
43934;BME280;59081;42.706;23.306;2023-11-19T15:02:57;95036.31;;;2.59;73.34
43934;BME280;59081;42.706;23.306;2023-11-19T15:07:58;95147.44;;;3.25;74.25
43934;BME280;59081;42.706;23.306;2023-11-19T15:12:58;95081.78;;;2.76;72.67
43934;BME280;59081;42.706;23.306;2023-11-19T15:18:01;95069.28;;;2.15;75.84
43934;BME280;59081;42.706;23.306;2023-11-19T15:23:02;95209.22;;;3.74;74.67
43934;BME280;59081;42.706;23.306;2023-11-19T15:28:03;95068.47;;;2.00;77.52
43934;BME280;59081;42.706;23.306;2023-11-19T15:33:04;95068.53;;;2.54;75.55
43934;BME280;59081;42.706;23.306;2023-11-19T15:38:05;95125.22;;;2.44;77.89
43934;BME280;59081;42.706;23.306;2023-11-19T15:43:09;95249.69;;;3.47;77.51
43934;BME280;59081;42.706;23.306;2023-11-19T15:48:10;95235.28;;;3.14;76.94
43934;BME280;59081;42.706;23.306;2023-11-19T15:53:13;95243.06;;;3.12;78.13
43934;BME280;59081;42.706;23.306;2023-11-19T15:58:14;95070.88;;;2.55;75.35
43934;BME280;59081;42.706;23.306;2023-11-19T16:03:15;95187.47;;;2.74;78.67
43934;BME280;59081;42.706;23.306;2023-11-19T16:08:17;95076.69;;;2.32;76.70
43934;BME280;59081;42.706;23.306;2023-11-19T16:13:18;95196.78;;;2.73;77.00
43934;BME280;59081;42.706;23.306;2023-11-19T16:18:19;95084.72;;;1.83;77.85
43934;BME280;59081;42.706;23.306;2023-11-19T16:23:20;95246.59;;;3.63;74.98
43934;BME280;59081;42.706;23.306;2023-11-19T16:28:21;95166.47;;;2.75;76.03
43934;BME280;59081;42.706;23.306;2023-11-19T16:33:24;95061.16;;;2.33;76.03
43934;BME280;59081;42.706;23.306;2023-11-19T16:38:24;95102.28;;;3.38;74.51
43934;BME280;59081;42.706;23.306;2023-11-19T16:43:27;95050.66;;;2.88;84.37
43934;BME280;59081;42.706;23.306;2023-11-19T16:53:35;95059.16;;;2.08;72.87
43934;BME280;59081;42.706;23.306;2023-11-19T16:58:37;95247.34;;;3.70;71.38
43934;BME280;59081;42.706;23.306;2023-11-19T17:08:48;95111.28;;;3.06;67.01
43934;BME280;59081;42.706;23.306;2023-11-19T17:13:49;95175.03;;;3.02;67.90
43934;BME280;59081;42.706;23.306;2023-11-19T17:18:50;95119.44;;;2.71;67.31
43934;BME280;59081;42.706;23.306;2023-11-19T17:23:51;95074.38;;;2.56;66.18
43934;BME280;59081;42.706;23.306;2023-11-19T17:28:52;95145.50;;;3.11;67.38
43934;BME280;59081;42.706;23.306;2023-11-19T17:33:53;95227.81;;;4.04;66.39
43934;BME280;59081;42.706;23.306;2023-11-19T17:38:54;95077.47;;;2.47;69.26
43934;BME280;59081;42.706;23.306;2023-11-19T17:49:08;95050.66;;;2.28;70.46
43934;BME280;59081;42.706;23.306;2023-11-19T17:54:10;95066.22;;;2.41;70.87
43934;BME280;59081;42.706;23.306;2023-11-19T17:59:11;95239.59;;;3.37;70.93
43934;BME280;59081;42.706;23.306;2023-11-19T18:04:14;95059.97;;;2.23;70.99
43934;BME280;59081;42.706;23.306;2023-11-19T18:09:14;95130.34;;;3.10;69.10
43934;BME280;59081;42.706;23.306;2023-11-19T18:14:19;95229.50;;;3.27;71.23
43934;BME280;59081;42.706;23.306;2023-11-19T18:19:22;95035.53;;;2.48;69.88
43934;BME280;59081;42.706;23.306;2023-11-19T18:24:25;95255.16;;;3.58;70.55
43934;BME280;59081;42.706;23.306;2023-11-19T18:29:25;95205.34;;;3.61;70.72
43934;BME280;59081;42.706;23.306;2023-11-19T18:34:29;95082.13;;;2.36;72.16
43934;BME280;59081;42.706;23.306;2023-11-19T18:39:39;95265.63;;;3.88;71.62
43934;BME280;59081;42.706;23.306;2023-11-19T18:44:42;95151.72;;;2.94;71.85
43934;BME280;59081;42.706;23.306;2023-11-19T18:49:49;95117.88;;;2.95;70.99
43934;BME280;59081;42.706;23.306;2023-11-19T18:54:56;95077.09;;;2.59;71.46
43934;BME280;59081;42.706;23.306;2023-11-19T19:00:00;95220.47;;;3.87;70.63
43934;BME280;59081;42.706;23.306;2023-11-19T19:05:09;95217.81;;;3.58;70.81
43934;BME280;59081;42.706;23.306;2023-11-19T19:10:10;95102.72;;;2.97;70.83
43934;BME280;59081;42.706;23.306;2023-11-19T19:15:14;95195.66;;;3.21;71.39
43934;BME280;59081;42.706;23.306;2023-11-19T19:20:14;95196.38;;;3.71;69.05
43934;BME280;59081;42.706;23.306;2023-11-19T19:25:16;95101.19;;;2.93;69.32
43934;BME280;59081;42.706;23.306;2023-11-19T19:30:16;95222.06;;;3.73;69.77
43934;BME280;59081;42.706;23.306;2023-11-19T19:35:26;95098.06;;;3.05;68.64
43934;BME280;59081;42.706;23.306;2023-11-19T19:40:30;95055.72;;;2.65;69.62
43934;BME280;59081;42.706;23.306;2023-11-19T19:45:34;95058.41;;;3.04;68.26
43934;BME280;59081;42.706;23.306;2023-11-19T19:50:46;95203.00;;;3.59;70.66
43934;BME280;59081;42.706;23.306;2023-11-19T19:55:46;95132.56;;;3.68;68.15
43934;BME280;59081;42.706;23.306;2023-11-19T20:00:56;95071.25;;;2.96;69.18
43934;BME280;59081;42.706;23.306;2023-11-19T20:05:58;95236.31;;;4.31;68.86
43934;BME280;59081;42.706;23.306;2023-11-19T20:11:09;95001.75;;;2.60;68.69
43934;BME280;59081;42.706;23.306;2023-11-19T20:16:17;95112.44;;;3.23;70.09
43934;BME280;59081;42.706;23.306;2023-11-19T20:21:18;95097.69;;;3.10;69.57
43934;BME280;59081;42.706;23.306;2023-11-19T20:26:21;95046.78;;;2.75;71.12
43934;BME280;59081;42.706;23.306;2023-11-19T20:31:25;95037.41;;;3.11;69.89
43934;BME280;59081;42.706;23.306;2023-11-19T20:36:26;95208.44;;;3.73;71.23
43934;BME280;59081;42.706;23.306;2023-11-19T20:41:27;95207.22;;;3.92;70.79
43934;BME280;59081;42.706;23.306;2023-11-19T20:46:30;95202.63;;;3.50;73.06
43934;BME280;59081;42.706;23.306;2023-11-19T20:51:37;95185.13;;;3.44;73.37
43934;BME280;59081;42.706;23.306;2023-11-19T20:56:37;95070.09;;;2.40;74.38
43934;BME280;59081;42.706;23.306;2023-11-19T21:01:42;95066.56;;;2.19;75.36
43934;BME280;59081;42.706;23.306;2023-11-19T21:06:46;95182.78;;;3.57;72.24
43934;BME280;59081;42.706;23.306;2023-11-19T21:11:47;95194.50;;;3.11;74.65
43934;BME280;59081;42.706;23.306;2023-11-19T21:16:48;95108.19;;;3.08;71.84
43934;BME280;59081;42.706;23.306;2023-11-19T21:21:51;95208.47;;;3.17;74.67
43934;BME280;59081;42.706;23.306;2023-11-19T21:26:57;95175.44;;;3.29;72.44
43934;BME280;59081;42.706;23.306;2023-11-19T21:31:57;95188.25;;;3.21;73.48
43934;BME280;59081;42.706;23.306;2023-11-19T21:36:58;95043.25;;;2.07;74.40
43934;BME280;59081;42.706;23.306;2023-11-19T21:41:59;95171.53;;;3.08;74.04
43934;BME280;59081;42.706;23.306;2023-11-19T21:47:00;95127.91;;;2.30;77.14
43934;BME280;59081;42.706;23.306;2023-11-19T21:52:03;95173.09;;;3.20;74.55
43934;BME280;59081;42.706;23.306;2023-11-19T21:57:07;95050.66;;;2.21;74.32
43934;BME280;59081;42.706;23.306;2023-11-19T22:02:16;95033.56;;;2.27;74.22
43934;BME280;59081;42.706;23.306;2023-11-19T22:07:21;95151.31;;;2.81;74.69
43934;BME280;59081;42.706;23.306;2023-11-19T22:12:24;94987.75;;;2.01;74.29
43934;BME280;59081;42.706;23.306;2023-11-19T22:17:27;95149.38;;;2.82;75.13
43934;BME280;59081;42.706;23.306;2023-11-19T22:22:28;94986.50;;;1.59;76.98
43934;BME280;59081;42.706;23.306;2023-11-19T22:27:31;94979.97;;;1.85;75.95
43934;BME280;59081;42.706;23.306;2023-11-19T22:32:35;94909.97;;;1.08;77.86
43934;BME280;59081;42.706;23.306;2023-11-19T22:37:36;95063.88;;;2.36;76.69
43934;BME280;59081;42.706;23.306;2023-11-19T22:42:37;95058.03;;;2.20;76.16
43934;BME280;59081;42.706;23.306;2023-11-19T22:47:41;95070.47;;;2.42;74.13
43934;BME280;59081;42.706;23.306;2023-11-19T22:52:42;95057.28;;;2.59;71.73
43934;BME280;59081;42.706;23.306;2023-11-19T22:57:43;94960.94;;;1.82;71.53
43934;BME280;59081;42.706;23.306;2023-11-19T23:02:47;95154.03;;;3.38;70.19
43934;BME280;59081;42.706;23.306;2023-11-19T23:07:48;95048.34;;;2.48;71.02
43934;BME280;59081;42.706;23.306;2023-11-19T23:12:48;95167.19;;;3.64;70.14
43934;BME280;59081;42.706;23.306;2023-11-19T23:17:49;95025.44;;;2.56;70.13
43934;BME280;59081;42.706;23.306;2023-11-19T23:22:50;95043.28;;;2.50;71.85
43934;BME280;59081;42.706;23.306;2023-11-19T23:27:51;95150.09;;;3.53;69.63
43934;BME280;59081;42.706;23.306;2023-11-19T23:32:55;94979.97;;;2.49;69.57
43934;BME280;59081;42.706;23.306;2023-11-19T23:38:02;95041.25;;;3.25;67.83
43934;BME280;59081;42.706;23.306;2023-11-19T23:43:03;95052.91;;;3.36;67.57
43934;BME280;59081;42.706;23.306;2023-11-19T23:48:04;94946.84;;;3.11;65.31
43934;BME280;59081;42.706;23.306;2023-11-19T23:53:08;95141.06;;;3.88;66.98
43934;BME280;59081;42.706;23.306;2023-11-19T23:58:14;95031.28;;;3.84;64.32
